Kinmount, Canada
Current Conditions -  °F | °C
As of 8:00 AM on Saturday 25 Oct 2014 (Local Time) from CYQA Reporting Station
Overcast Overcast  
Wind Chill: 46°   Ceiling: 1900
Heat Index: 48°   Visibility: 9mi
Dew Point: 45°   Wind: 6mph
Humidity: 87%   Direction: 170°S
Pressure: 29.71"   Gusts: NA
Location:  44.78°N, 78.65°W
Report Text: CYQA 251200Z AUTO 17005KT 9SM OVC019 09/07 A2971 RMK SLP068
Loading
Personal Weather Stations






























Interactive Weather Map New forecast layout! Learn more

10-Day Weather Forecast

Advertisements
Track Severe Weather on mobile